createdAt,value
2017-08-14T00:00:11.157Z,17.26
2017-08-14T00:01:11.148Z,17.36
2017-08-14T00:02:11.140Z,17.33
2017-08-14T00:03:11.588Z,17.30
2017-08-14T00:04:11.121Z,17.25
2017-08-14T00:05:11.110Z,17.23
2017-08-14T00:06:11.105Z,17.22
2017-08-14T00:07:11.095Z,17.26
2017-08-14T00:08:11.100Z,17.28
2017-08-14T00:09:16.390Z,17.25
2017-08-14T00:10:11.078Z,17.26
2017-08-14T00:11:11.073Z,17.31
2017-08-14T00:12:11.059Z,17.23
2017-08-14T00:13:11.043Z,17.23
2017-08-14T00:14:11.053Z,17.25
2017-08-14T00:15:11.473Z,17.23
2017-08-14T00:16:11.017Z,17.15
2017-08-14T00:17:11.007Z,17.15
2017-08-14T00:18:11.013Z,17.16
2017-08-14T00:19:10.998Z,17.14
2017-08-14T00:20:10.994Z,17.14
2017-08-14T00:21:11.009Z,17.22
2017-08-14T00:22:10.970Z,17.14
2017-08-14T00:23:10.967Z,17.14
2017-08-14T00:24:10.970Z,17.15
2017-08-14T00:25:10.941Z,17.15
2017-08-14T00:26:11.325Z,17.12
2017-08-14T00:27:10.939Z,17.18
2017-08-14T00:28:10.934Z,17.11
2017-08-14T00:29:10.908Z,17.14
2017-08-14T00:30:10.897Z,17.16
2017-08-14T00:31:10.899Z,17.12
2017-08-14T00:32:11.349Z,17.12
2017-08-14T00:33:10.948Z,17.16
2017-08-14T00:34:10.880Z,17.15
2017-08-14T00:35:10.879Z,17.12
2017-08-14T00:36:10.857Z,17.06
2017-08-14T00:37:10.853Z,17.04
2017-08-14T00:38:11.209Z,17.08
2017-08-14T00:39:10.836Z,17.08
2017-08-14T00:40:10.816Z,17.07
2017-08-14T00:41:10.820Z,17.07
2017-08-14T00:42:10.812Z,16.97
2017-08-14T00:43:10.795Z,17.04
2017-08-14T00:44:11.104Z,17.01
2017-08-14T00:45:10.775Z,17.01
2017-08-14T00:46:10.778Z,16.98
2017-08-14T00:47:10.760Z,17.01
2017-08-14T00:48:10.764Z,16.94
2017-08-14T00:49:10.751Z,16.93
2017-08-14T00:50:10.783Z,16.93
2017-08-14T00:51:10.738Z,16.93
2017-08-14T00:52:11.072Z,16.97
2017-08-14T00:53:10.709Z,16.98
2017-08-14T00:54:10.699Z,16.96
2017-08-14T00:55:10.715Z,16.94
2017-08-14T00:56:10.681Z,16.93
2017-08-14T00:57:10.683Z,16.91
2017-08-14T00:58:10.710Z,16.91
2017-08-14T00:59:10.656Z,16.93
2017-08-14T01:00:10.668Z,16.93
2017-08-14T01:01:10.640Z,16.97
2017-08-14T01:02:10.952Z,16.97
2017-08-14T01:03:10.634Z,16.91
2017-08-14T01:04:10.632Z,16.85
2017-08-14T01:05:10.604Z,16.98
2017-08-14T01:06:10.599Z,16.83
2017-08-14T01:07:10.600Z,16.94
2017-08-14T01:08:11.010Z,16.86
2017-08-14T01:09:10.591Z,17.00
2017-08-14T01:10:10.569Z,16.94
2017-08-14T01:11:10.558Z,16.94
2017-08-14T01:12:10.551Z,16.86
2017-08-14T01:13:10.553Z,16.96
2017-08-14T01:14:10.936Z,16.93
2017-08-14T01:15:10.533Z,16.91
2017-08-14T01:16:10.517Z,16.81
2017-08-14T01:17:10.563Z,16.78
2017-08-14T01:18:10.502Z,16.75
2017-08-14T01:19:10.496Z,16.89
2017-08-14T01:20:10.857Z,16.79
2017-08-14T01:21:10.484Z,16.82
2017-08-14T01:22:10.468Z,16.76
2017-08-14T01:23:10.466Z,16.79
2017-08-14T01:24:10.471Z,16.76
2017-08-14T01:25:10.452Z,16.76
2017-08-14T01:26:10.836Z,16.78
2017-08-14T01:27:10.461Z,16.73
2017-08-14T01:28:10.447Z,16.78
2017-08-14T01:29:10.407Z,16.76
2017-08-14T01:30:10.402Z,16.71
2017-08-14T01:31:10.399Z,16.73
2017-08-14T01:32:10.403Z,16.78
2017-08-14T01:33:10.397Z,16.71
2017-08-14T01:34:10.820Z,16.78
2017-08-14T01:35:10.371Z,16.81
2017-08-14T01:36:10.362Z,16.78
2017-08-14T01:37:10.347Z,16.75
2017-08-14T01:38:10.375Z,16.71
2017-08-14T01:39:10.336Z,16.76
2017-08-14T01:40:10.687Z,16.78
2017-08-14T01:41:10.303Z,16.71
2017-08-14T01:42:10.304Z,16.76
2017-08-14T01:43:10.285Z,16.79
2017-08-14T01:44:10.277Z,16.70
2017-08-14T01:45:10.268Z,16.73
2017-08-14T01:46:10.556Z,16.76
2017-08-14T01:47:10.266Z,16.78
2017-08-14T01:48:10.259Z,16.73
2017-08-14T01:49:10.249Z,16.73
2017-08-14T01:50:10.234Z,16.78
2017-08-14T01:51:10.220Z,16.81
2017-08-14T01:52:10.511Z,16.70
2017-08-14T01:53:10.252Z,16.78
2017-08-14T01:54:10.200Z,16.81
2017-08-14T01:55:10.206Z,16.79
2017-08-14T01:56:10.174Z,16.73
2017-08-14T01:57:10.176Z,16.73
2017-08-14T01:58:10.599Z,16.78
2017-08-14T01:59:10.159Z,16.79
2017-08-14T02:00:10.145Z,16.75
2017-08-14T02:01:10.149Z,16.76
2017-08-14T02:02:10.135Z,16.68
2017-08-14T02:03:10.116Z,16.76
2017-08-14T02:04:10.431Z,16.71
2017-08-14T02:05:10.107Z,16.75
2017-08-14T02:06:10.090Z,16.76
2017-08-14T02:07:10.081Z,16.75
2017-08-14T02:08:10.076Z,16.67
2017-08-14T02:09:10.074Z,16.67
2017-08-14T02:10:10.088Z,16.66
2017-08-14T02:11:10.053Z,16.71
2017-08-14T02:12:10.039Z,16.73
2017-08-14T02:13:10.252Z,16.70
2017-08-14T02:14:10.036Z,16.71
2017-08-14T02:15:10.021Z,16.66
2017-08-14T02:16:10.014Z,16.67
2017-08-14T02:17:09.995Z,16.68
2017-08-14T02:18:09.987Z,16.64
2017-08-14T02:19:10.349Z,16.66
2017-08-14T02:20:10.010Z,16.66
2017-08-14T02:21:09.969Z,16.52
2017-08-14T02:22:09.963Z,16.73
2017-08-14T02:23:09.951Z,16.64
2017-08-14T02:24:09.938Z,16.52
2017-08-14T02:25:09.961Z,16.56
2017-08-14T02:26:09.928Z,16.64
2017-08-14T02:27:09.929Z,16.56
2017-08-14T02:28:10.281Z,16.56
2017-08-14T02:29:09.887Z,16.50
2017-08-14T02:30:09.885Z,16.50
2017-08-14T02:31:09.873Z,16.53
2017-08-14T02:32:09.876Z,16.66
2017-08-14T02:33:09.871Z,16.57
2017-08-14T02:34:09.872Z,16.64
2017-08-14T02:35:09.850Z,16.57
2017-08-14T02:36:09.827Z,16.52
2017-08-14T02:37:09.830Z,16.53
2017-08-14T02:38:09.854Z,16.56
2017-08-14T02:39:09.816Z,16.53
2017-08-14T02:40:09.794Z,16.52
2017-08-14T02:41:09.800Z,16.58
2017-08-14T02:42:09.786Z,16.56
2017-08-14T02:43:09.823Z,16.53
2017-08-14T02:44:09.755Z,16.45
2017-08-14T02:45:09.749Z,16.41
2017-08-14T02:46:09.752Z,16.45
2017-08-14T02:47:09.735Z,16.50
2017-08-14T02:48:09.772Z,16.50
2017-08-14T02:49:09.714Z,16.49
2017-08-14T02:50:09.714Z,16.41
2017-08-14T02:51:09.710Z,16.46
2017-08-14T02:52:09.703Z,16.39
2017-08-14T02:53:09.914Z,16.50
2017-08-14T02:54:09.668Z,16.52
2017-08-14T02:55:09.685Z,16.41
2017-08-14T02:56:09.656Z,16.49
2017-08-14T02:57:09.645Z,16.38
2017-08-14T02:58:09.661Z,16.41
2017-08-14T02:59:10.027Z,16.45
2017-08-14T03:00:09.629Z,16.42
2017-08-14T03:01:09.608Z,16.42
2017-08-14T03:02:09.614Z,16.45
2017-08-14T03:03:09.602Z,16.41
2017-08-14T03:04:09.599Z,16.38
2017-08-14T03:05:09.869Z,16.31
2017-08-14T03:06:09.584Z,16.31
2017-08-14T03:07:09.559Z,16.31
2017-08-14T03:08:09.554Z,16.34
2017-08-14T03:09:09.550Z,16.35
2017-08-14T03:10:09.542Z,16.33
2017-08-14T03:11:09.557Z,16.30
2017-08-14T03:12:09.532Z,16.28
2017-08-14T03:13:09.511Z,16.30
2017-08-14T03:14:09.508Z,16.30
2017-08-14T03:15:09.493Z,16.31
2017-08-14T03:16:09.792Z,16.35
2017-08-14T03:17:09.477Z,16.34
2017-08-14T03:18:09.476Z,16.34
2017-08-14T03:19:09.462Z,16.30
2017-08-14T03:20:09.441Z,16.27
2017-08-14T03:21:09.452Z,16.33
2017-08-14T03:22:09.873Z,16.33
2017-08-14T03:23:09.425Z,16.28
2017-08-14T03:24:09.421Z,16.23
2017-08-14T03:25:09.406Z,16.31
2017-08-14T03:26:09.491Z,16.23
2017-08-14T03:27:09.381Z,16.14
2017-08-14T03:28:09.400Z,16.24
2017-08-14T03:29:09.375Z,16.23
2017-08-14T03:30:09.371Z,16.25
2017-08-14T03:31:09.788Z,16.27
2017-08-14T03:32:09.339Z,16.20
2017-08-14T03:33:09.342Z,16.24
2017-08-14T03:34:09.316Z,16.20
2017-08-14T03:35:09.306Z,16.20
2017-08-14T03:36:09.312Z,16.14
2017-08-14T03:37:09.328Z,16.20
2017-08-14T03:38:09.297Z,16.15
2017-08-14T03:39:09.286Z,16.14
2017-08-14T03:40:09.266Z,16.11
2017-08-14T03:41:09.565Z,16.11
2017-08-14T03:42:09.245Z,16.09
2017-08-14T03:43:09.252Z,16.08
2017-08-14T03:44:09.236Z,16.09
2017-08-14T03:45:09.219Z,16.09
2017-08-14T03:46:09.208Z,16.04
2017-08-14T03:47:09.230Z,16.08
2017-08-14T03:48:09.219Z,16.12
2017-08-14T03:49:09.193Z,16.09
2017-08-14T03:50:09.170Z,16.11
2017-08-14T03:51:09.264Z,16.09
2017-08-14T03:52:09.165Z,16.12
2017-08-14T03:53:09.152Z,16.11
2017-08-14T03:54:09.150Z,16.14
2017-08-14T03:55:09.149Z,16.11
2017-08-14T03:56:09.146Z,16.05
2017-08-14T03:57:09.121Z,16.05
2017-08-14T03:58:09.109Z,16.01
2017-08-14T03:59:09.092Z,16.05
2017-08-14T04:00:09.092Z,16.09
2017-08-14T04:01:09.106Z,16.17
2017-08-14T04:02:09.108Z,16.04
2017-08-14T04:03:09.067Z,16.04
2017-08-14T04:04:09.048Z,16.02
2017-08-14T04:05:09.050Z,16.02
2017-08-14T04:06:09.095Z,16.05
2017-08-14T04:07:09.057Z,16.02
2017-08-14T04:08:09.029Z,16.02
2017-08-14T04:09:09.002Z,16.07
2017-08-14T04:10:09.005Z,16.02
2017-08-14T04:11:08.991Z,16.02
2017-08-14T04:12:09.023Z,16.01
2017-08-14T04:13:08.963Z,16.05
2017-08-14T04:14:08.969Z,16.08
2017-08-14T04:15:08.964Z,16.01
2017-08-14T04:16:08.941Z,16.07
2017-08-14T04:17:09.150Z,16.01
2017-08-14T04:18:08.921Z,16.04
2017-08-14T04:19:08.931Z,16.04
2017-08-14T04:20:08.909Z,16.00
2017-08-14T04:21:08.888Z,16.00
2017-08-14T04:22:08.884Z,16.00
2017-08-14T04:23:09.239Z,16.01
2017-08-14T04:24:08.864Z,16.00
2017-08-14T04:25:08.852Z,16.02
2017-08-14T04:26:08.866Z,16.04
2017-08-14T04:27:08.852Z,16.02
2017-08-14T04:28:08.829Z,16.07
2017-08-14T04:29:09.131Z,16.04
2017-08-14T04:30:08.811Z,16.04
2017-08-14T04:31:08.811Z,16.00
2017-08-14T04:32:08.796Z,16.04
2017-08-14T04:33:08.779Z,16.05
2017-08-14T04:34:08.780Z,15.97
2017-08-14T04:35:09.134Z,16.01
2017-08-14T04:36:08.766Z,15.97
2017-08-14T04:37:08.762Z,16.05
2017-08-14T04:38:08.739Z,16.02
2017-08-14T04:39:08.745Z,16.02
2017-08-14T04:40:08.721Z,16.04
2017-08-14T04:41:09.123Z,16.07
2017-08-14T04:42:08.702Z,16.07
2017-08-14T04:43:08.702Z,16.05
2017-08-14T04:44:08.694Z,16.07
2017-08-14T04:45:08.686Z,16.04
2017-08-14T04:46:08.681Z,16.02
2017-08-14T04:47:08.993Z,16.02
2017-08-14T04:48:08.686Z,16.05
2017-08-14T04:49:08.636Z,16.05
2017-08-14T04:50:08.642Z,15.97
2017-08-14T04:51:08.620Z,16.00
2017-08-14T04:52:08.630Z,16.05
2017-08-14T04:53:08.967Z,16.02
2017-08-14T04:54:08.606Z,16.04
2017-08-14T04:55:08.595Z,15.94
2017-08-14T04:56:08.587Z,15.96
2017-08-14T04:57:08.565Z,16.05
2017-08-14T04:58:08.569Z,16.04
2017-08-14T04:59:08.738Z,15.96
2017-08-14T05:00:08.554Z,16.00
2017-08-14T05:01:08.535Z,16.02
2017-08-14T05:02:08.533Z,16.00
2017-08-14T05:03:08.520Z,16.00
2017-08-14T05:04:08.513Z,16.02
2017-08-14T05:05:08.904Z,16.02
2017-08-14T05:06:08.499Z,16.00
2017-08-14T05:07:08.488Z,16.02
2017-08-14T05:08:08.465Z,16.07
2017-08-14T05:09:08.455Z,16.00
2017-08-14T05:10:08.448Z,16.09
2017-08-14T05:11:08.899Z,16.11
2017-08-14T05:12:08.428Z,16.09
2017-08-14T05:13:08.432Z,16.02
2017-08-14T05:14:08.421Z,16.01
2017-08-14T05:15:08.414Z,16.04
2017-08-14T05:16:08.397Z,16.08
2017-08-14T05:17:08.802Z,16.02
2017-08-14T05:18:08.388Z,16.08
2017-08-14T05:19:08.370Z,16.12
2017-08-14T05:20:08.368Z,16.11
2017-08-14T05:21:08.360Z,16.12
2017-08-14T05:22:08.343Z,16.08
2017-08-14T05:23:08.354Z,16.11
2017-08-14T05:24:08.342Z,16.07
2017-08-14T05:25:08.325Z,16.04
2017-08-14T05:26:08.711Z,16.07
2017-08-14T05:27:08.299Z,16.09
2017-08-14T05:28:08.290Z,16.09
2017-08-14T05:29:08.275Z,16.17
2017-08-14T05:30:08.279Z,16.14
2017-08-14T05:31:08.254Z,16.12
2017-08-14T05:32:08.571Z,16.11
2017-08-14T05:33:08.252Z,16.04
2017-08-14T05:34:08.242Z,16.07
2017-08-14T05:35:08.240Z,16.09
2017-08-14T05:36:08.220Z,16.14
2017-08-14T05:37:08.215Z,16.12
2017-08-14T05:38:08.413Z,16.08
2017-08-14T05:39:08.190Z,16.02
2017-08-14T05:40:08.182Z,16.09
2017-08-14T05:41:08.177Z,16.09
2017-08-14T05:42:08.178Z,16.14
2017-08-14T05:43:08.150Z,16.17
2017-08-14T05:44:08.590Z,16.11
2017-08-14T05:45:08.132Z,16.17
2017-08-14T05:46:08.139Z,16.14
2017-08-14T05:47:08.126Z,16.11
2017-08-14T05:48:08.118Z,16.21
2017-08-14T05:49:08.108Z,16.21
2017-08-14T05:50:08.488Z,16.12
2017-08-14T05:51:08.090Z,16.17
2017-08-14T05:52:08.069Z,16.11
2017-08-14T05:53:08.062Z,16.12
2017-08-14T05:54:08.057Z,16.23
2017-08-14T05:55:08.049Z,16.25
2017-08-14T05:56:08.410Z,16.23
2017-08-14T05:57:08.037Z,16.24
2017-08-14T05:58:08.018Z,16.31
2017-08-14T05:59:08.010Z,16.31
2017-08-14T06:00:08.010Z,16.25
2017-08-14T06:01:07.991Z,16.25
2017-08-14T06:02:08.296Z,16.23
2017-08-14T06:03:07.985Z,16.27
2017-08-14T06:04:07.979Z,16.24
2017-08-14T06:05:07.967Z,16.27
2017-08-14T06:06:07.943Z,16.28
2017-08-14T06:07:07.948Z,16.24
2017-08-14T06:08:08.289Z,16.28
2017-08-14T06:09:07.921Z,16.27
2017-08-14T06:10:07.926Z,16.17
2017-08-14T06:11:07.902Z,16.17
2017-08-14T06:12:07.892Z,16.20
2017-08-14T06:13:07.906Z,16.38
2017-08-14T06:14:08.316Z,16.30
2017-08-14T06:15:07.876Z,16.33
2017-08-14T06:16:07.868Z,16.28
2017-08-14T06:17:07.858Z,16.27
2017-08-14T06:18:07.855Z,16.28
2017-08-14T06:19:07.841Z,16.31
2017-08-14T06:20:07.867Z,16.30
2017-08-14T06:21:07.811Z,16.33
2017-08-14T06:22:07.816Z,16.42
2017-08-14T06:23:07.806Z,16.30
2017-08-14T06:24:07.801Z,16.38
2017-08-14T06:25:07.828Z,16.39
2017-08-14T06:26:07.801Z,16.41
2017-08-14T06:27:07.763Z,16.28
2017-08-14T06:28:07.754Z,16.30
2017-08-14T06:29:07.754Z,16.39
2017-08-14T06:30:08.168Z,16.41
2017-08-14T06:31:07.725Z,16.41
2017-08-14T06:32:07.733Z,16.41
2017-08-14T06:33:07.706Z,16.41
2017-08-14T06:34:07.703Z,16.46
2017-08-14T06:35:07.700Z,16.46
2017-08-14T06:36:07.731Z,16.38
2017-08-14T06:37:07.678Z,16.41
2017-08-14T06:38:07.676Z,16.48
2017-08-14T06:39:07.670Z,16.38
2017-08-14T06:40:08.025Z,16.38
2017-08-14T06:41:07.637Z,16.34
2017-08-14T06:42:07.640Z,16.43
2017-08-14T06:43:07.644Z,16.43
2017-08-14T06:44:07.625Z,16.48
2017-08-14T06:45:07.611Z,16.45
2017-08-14T06:46:08.004Z,16.39
2017-08-14T06:47:07.600Z,16.45
2017-08-14T06:48:07.593Z,16.57
2017-08-14T06:49:07.583Z,16.61
2017-08-14T06:50:07.575Z,16.49
2017-08-14T06:51:07.567Z,16.53
2017-08-14T06:52:07.876Z,16.58
2017-08-14T06:53:07.539Z,16.56
2017-08-14T06:54:07.536Z,16.58
2017-08-14T06:55:07.531Z,16.63
2017-08-14T06:56:07.519Z,16.53
2017-08-14T06:57:07.517Z,16.61
2017-08-14T06:58:07.522Z,16.53
2017-08-14T06:59:07.489Z,16.52
2017-08-14T07:00:07.934Z,16.52
2017-08-14T07:01:07.478Z,16.61
2017-08-14T07:02:07.460Z,16.60
2017-08-14T07:03:07.464Z,16.63
2017-08-14T07:04:07.447Z,16.58
2017-08-14T07:05:07.478Z,16.60
2017-08-14T07:06:07.784Z,16.66
2017-08-14T07:07:07.428Z,16.66
2017-08-14T07:08:07.418Z,16.67
2017-08-14T07:09:07.410Z,16.64
2017-08-14T07:10:07.399Z,16.70
2017-08-14T07:11:07.391Z,16.73
2017-08-14T07:12:07.668Z,16.66
2017-08-14T07:13:07.385Z,16.75
2017-08-14T07:14:07.355Z,16.73
2017-08-14T07:15:07.351Z,16.71
2017-08-14T07:16:07.392Z,16.82
2017-08-14T07:17:07.352Z,16.82
2017-08-14T07:18:07.423Z,16.82
2017-08-14T07:19:07.326Z,16.78
2017-08-14T07:20:07.316Z,16.75
2017-08-14T07:21:07.310Z,16.86
2017-08-14T07:22:07.640Z,16.71
2017-08-14T07:23:07.277Z,16.83
2017-08-14T07:24:07.284Z,16.83
2017-08-14T07:25:07.275Z,16.83
2017-08-14T07:26:07.256Z,16.82
2017-08-14T07:27:07.244Z,16.86
2017-08-14T07:28:07.584Z,16.82
2017-08-14T07:29:07.237Z,16.88
2017-08-14T07:30:07.238Z,16.96
2017-08-14T07:31:07.212Z,16.93
2017-08-14T07:32:07.206Z,16.98
2017-08-14T07:33:07.207Z,16.91
2017-08-14T07:34:07.224Z,16.97
2017-08-14T07:35:07.177Z,16.89
2017-08-14T07:36:07.178Z,16.88
2017-08-14T07:37:07.173Z,16.91
2017-08-14T07:38:07.471Z,16.93
2017-08-14T07:39:07.162Z,16.94
2017-08-14T07:40:07.138Z,16.97
2017-08-14T07:41:07.139Z,16.94
2017-08-14T07:42:07.141Z,17.00
2017-08-14T07:43:07.125Z,17.03
2017-08-14T07:44:07.459Z,16.98
2017-08-14T07:45:07.104Z,17.04
2017-08-14T07:46:07.090Z,17.07
2017-08-14T07:47:07.080Z,17.07
2017-08-14T07:48:07.073Z,17.04
2017-08-14T07:49:07.085Z,17.11
2017-08-14T07:50:07.100Z,17.08
2017-08-14T07:51:07.046Z,17.19
2017-08-14T07:52:07.051Z,17.14
2017-08-14T07:53:07.362Z,17.18
2017-08-14T07:54:07.035Z,17.14
2017-08-14T07:55:07.027Z,17.22
2017-08-14T07:56:07.007Z,17.22
2017-08-14T07:57:07.012Z,17.19
2017-08-14T07:58:07.002Z,17.23
2017-08-14T07:59:07.037Z,17.26
2017-08-14T08:00:06.975Z,17.22
2017-08-14T08:01:06.990Z,17.25
2017-08-14T08:02:06.971Z,17.23
2017-08-14T08:03:06.951Z,17.21
2017-08-14T08:04:07.347Z,17.25
2017-08-14T08:05:06.933Z,17.31
2017-08-14T08:06:06.940Z,17.36
2017-08-14T08:07:06.921Z,17.43
2017-08-14T08:08:06.920Z,17.44
2017-08-14T08:09:06.914Z,17.44
2017-08-14T08:10:06.918Z,17.43
2017-08-14T08:11:06.888Z,17.49
2017-08-14T08:12:06.891Z,17.43
2017-08-14T08:13:06.872Z,17.46
2017-08-14T08:14:06.861Z,17.49
2017-08-14T08:15:06.913Z,17.34
2017-08-14T08:16:06.859Z,17.43
2017-08-14T08:17:06.849Z,17.52
2017-08-14T08:18:06.836Z,17.55
2017-08-14T08:19:06.822Z,17.49
2017-08-14T08:20:07.117Z,17.48
2017-08-14T08:21:06.808Z,17.48
2017-08-14T08:22:06.809Z,17.59
2017-08-14T08:23:06.809Z,17.71
2017-08-14T08:24:06.799Z,17.56
2017-08-14T08:25:06.789Z,17.56
2017-08-14T08:26:06.807Z,17.56
2017-08-14T08:27:06.781Z,17.70
2017-08-14T08:28:06.752Z,17.63
2017-08-14T08:29:06.758Z,17.64
2017-08-14T08:30:06.800Z,17.68
2017-08-14T08:31:06.750Z,17.71
2017-08-14T08:32:06.721Z,17.77
2017-08-14T08:33:06.713Z,17.68
2017-08-14T08:34:06.711Z,17.75
2017-08-14T08:35:07.127Z,17.77
2017-08-14T08:36:06.696Z,17.82
2017-08-14T08:37:06.687Z,17.86
2017-08-14T08:38:06.691Z,17.87
2017-08-14T08:39:06.687Z,17.84
2017-08-14T08:40:06.660Z,17.92
2017-08-14T08:41:07.115Z,17.89
2017-08-14T08:42:06.668Z,17.86
2017-08-14T08:43:06.653Z,17.92
2017-08-14T08:44:06.643Z,17.99
2017-08-14T08:45:06.623Z,18.00
2017-08-14T08:46:06.612Z,18.00
2017-08-14T08:47:07.056Z,17.99
2017-08-14T08:48:06.617Z,17.96
2017-08-14T08:49:06.593Z,17.99
2017-08-14T08:50:06.590Z,18.08
2017-08-14T08:51:06.586Z,18.05
2017-08-14T08:52:06.569Z,18.10
2017-08-14T08:53:06.787Z,18.00
2017-08-14T08:54:06.555Z,18.07
2017-08-14T08:55:06.565Z,18.14
2017-08-14T08:56:06.541Z,18.17
2017-08-14T08:57:06.552Z,18.21
2017-08-14T08:58:06.539Z,18.21
2017-08-14T08:59:06.842Z,18.29
2017-08-14T09:00:06.529Z,18.23
2017-08-14T09:01:06.501Z,18.25
2017-08-14T09:02:06.508Z,18.33
2017-08-14T09:03:06.492Z,18.33
2017-08-14T09:04:06.497Z,18.41
2017-08-14T09:05:06.922Z,18.35
2017-08-14T09:06:06.479Z,18.33
2017-08-14T09:07:06.472Z,18.42
2017-08-14T09:08:06.451Z,18.39
2017-08-14T09:09:06.445Z,18.45
2017-08-14T09:10:06.456Z,18.41
2017-08-14T09:11:06.895Z,18.45
2017-08-14T09:12:06.433Z,18.45
2017-08-14T09:13:06.420Z,18.52
2017-08-14T09:14:06.422Z,18.55
2017-08-14T09:15:06.403Z,18.57
2017-08-14T09:16:06.395Z,18.58
2017-08-14T09:17:06.431Z,18.55
2017-08-14T09:18:06.395Z,18.52
2017-08-14T09:19:06.378Z,18.69
2017-08-14T09:20:06.381Z,18.65
2017-08-14T09:21:06.729Z,18.66
2017-08-14T09:22:06.362Z,18.62
2017-08-14T09:23:06.372Z,18.75
2017-08-14T09:24:06.356Z,18.66
2017-08-14T09:25:06.347Z,18.72
2017-08-14T09:26:06.325Z,18.72
2017-08-14T09:27:06.636Z,18.73
2017-08-14T09:28:06.329Z,18.76
2017-08-14T09:29:06.321Z,18.81
2017-08-14T09:30:06.310Z,18.76
2017-08-14T09:31:06.293Z,18.76
2017-08-14T09:32:06.306Z,18.84
2017-08-14T09:33:06.316Z,18.78
2017-08-14T09:34:06.269Z,18.84
2017-08-14T09:35:06.271Z,18.81
2017-08-14T09:36:06.269Z,18.88
2017-08-14T09:37:06.709Z,18.92
2017-08-14T09:38:06.253Z,18.95
2017-08-14T09:39:06.262Z,18.99
2017-08-14T09:40:06.240Z,19.00
2017-08-14T09:41:06.233Z,19.02
2017-08-14T09:42:06.215Z,19.02
2017-08-14T09:43:06.232Z,19.02
2017-08-14T09:44:06.205Z,18.95
2017-08-14T09:45:06.193Z,19.11
2017-08-14T09:46:06.203Z,19.04
2017-08-14T09:47:06.190Z,19.13
2017-08-14T09:48:06.600Z,19.19
2017-08-14T09:49:06.168Z,19.18
2017-08-14T09:50:06.181Z,19.13
2017-08-14T09:51:06.172Z,19.28
2017-08-14T09:52:06.162Z,19.19
2017-08-14T09:53:06.144Z,19.29
2017-08-14T09:54:06.356Z,19.23
2017-08-14T09:55:06.140Z,19.26
2017-08-14T09:56:06.141Z,19.41
2017-08-14T09:57:06.115Z,19.36
2017-08-14T09:58:06.129Z,19.37
2017-08-14T09:59:06.113Z,19.43
2017-08-14T10:00:06.143Z,19.44
2017-08-14T10:01:06.092Z,19.44
2017-08-14T10:02:06.086Z,19.47
2017-08-14T10:03:06.302Z,19.61
2017-08-14T10:04:06.077Z,19.58
2017-08-14T10:05:06.076Z,19.66
2017-08-14T10:06:06.087Z,19.59
2017-08-14T10:07:06.060Z,19.69
2017-08-14T10:08:06.058Z,19.69
2017-08-14T10:09:06.258Z,19.71
2017-08-14T10:10:06.034Z,19.76
2017-08-14T10:11:06.033Z,19.77
2017-08-14T10:12:06.024Z,19.77
2017-08-14T10:13:06.034Z,19.69
2017-08-14T10:14:06.036Z,19.76
2017-08-14T10:15:06.467Z,19.74
2017-08-14T10:16:06.009Z,19.74
2017-08-14T10:17:06.006Z,19.91
2017-08-14T10:18:06.010Z,19.87
2017-08-14T10:19:06.015Z,19.92
2017-08-14T10:20:05.996Z,19.92
2017-08-14T10:21:06.370Z,19.95
2017-08-14T10:22:05.975Z,20.01
2017-08-14T10:23:05.985Z,19.96
2017-08-14T10:24:05.967Z,19.99
2017-08-14T10:25:05.954Z,19.99
2017-08-14T10:26:05.958Z,20.03
2017-08-14T10:27:05.967Z,20.05
2017-08-14T10:28:05.934Z,20.06
2017-08-14T10:29:06.151Z,20.16
2017-08-14T10:30:05.953Z,20.10
2017-08-14T10:31:05.926Z,20.10
2017-08-14T10:32:05.916Z,20.10
2017-08-14T10:33:05.915Z,20.08
2017-08-14T10:34:05.915Z,20.11
2017-08-14T10:35:05.932Z,20.14
2017-08-14T10:36:05.894Z,20.10
2017-08-14T10:37:05.896Z,20.24
2017-08-14T10:38:05.872Z,20.26
2017-08-14T10:39:05.872Z,20.24
2017-08-14T10:40:06.234Z,20.33
2017-08-14T10:41:06.026Z,20.24
2017-08-14T10:42:05.870Z,20.31
2017-08-14T10:43:06.310Z,20.31
2017-08-14T10:44:05.835Z,20.39
2017-08-14T10:45:05.846Z,20.29
2017-08-14T10:46:05.900Z,20.38
2017-08-14T10:47:05.924Z,20.36
2017-08-14T10:48:06.092Z,20.35
2017-08-14T10:49:05.813Z,20.48
2017-08-14T10:50:05.812Z,20.39
2017-08-14T10:51:05.841Z,20.43
2017-08-14T10:52:05.793Z,20.43
2017-08-14T10:53:05.806Z,20.42
2017-08-14T10:54:05.796Z,20.50
2017-08-14T10:55:05.776Z,20.51
2017-08-14T10:56:05.860Z,20.59
2017-08-14T10:57:05.778Z,20.48
2017-08-14T10:58:05.772Z,20.55
2017-08-14T10:59:05.767Z,20.61
2017-08-14T11:00:05.749Z,20.58
2017-08-14T11:01:05.748Z,20.61
2017-08-14T11:02:06.217Z,20.73
2017-08-14T11:03:05.740Z,20.67
2017-08-14T11:04:05.733Z,20.67
2017-08-14T11:05:05.722Z,20.67
2017-08-14T11:06:05.709Z,20.67
2017-08-14T11:07:05.717Z,20.72
2017-08-14T11:08:06.058Z,20.69
2017-08-14T11:09:05.707Z,20.72
2017-08-14T11:10:05.712Z,20.73
2017-08-14T11:11:05.698Z,20.61
2017-08-14T11:12:05.677Z,20.61
2017-08-14T11:13:05.686Z,20.69
2017-08-14T11:14:05.992Z,20.72
2017-08-14T11:15:05.834Z,20.80
2017-08-14T11:16:05.656Z,20.76
2017-08-14T11:17:05.663Z,20.74
2017-08-14T11:18:05.656Z,20.76
2017-08-14T11:19:05.650Z,20.70
2017-08-14T11:20:05.668Z,20.69
2017-08-14T11:21:05.628Z,20.88
2017-08-14T11:22:05.636Z,20.87
2017-08-14T11:23:05.617Z,20.88
2017-08-14T11:24:05.612Z,20.89
2017-08-14T11:25:06.811Z,20.88
2017-08-14T11:26:05.613Z,21.01
2017-08-14T11:27:05.596Z,21.03
2017-08-14T11:28:05.589Z,21.04
2017-08-14T11:29:05.594Z,21.10
2017-08-14T11:30:05.591Z,21.12
2017-08-14T11:31:05.629Z,21.24
2017-08-14T11:32:05.577Z,21.35
2017-08-14T11:33:05.576Z,21.42
2017-08-14T11:34:05.568Z,21.50
2017-08-14T11:35:05.567Z,21.49
2017-08-14T11:36:05.992Z,21.61
2017-08-14T11:37:05.544Z,21.62
2017-08-14T11:38:05.535Z,21.64
2017-08-14T11:39:05.533Z,21.71
2017-08-14T11:40:06.235Z,21.72
2017-08-14T11:41:06.236Z,21.77
2017-08-14T11:42:05.993Z,21.90
2017-08-14T11:43:05.561Z,21.92
2017-08-14T11:44:05.517Z,22.15
2017-08-14T11:45:05.510Z,22.36
2017-08-14T11:46:05.524Z,22.51
2017-08-14T11:47:05.519Z,22.62
2017-08-14T11:48:05.958Z,22.73
2017-08-14T11:49:05.508Z,22.83
2017-08-14T11:50:05.505Z,22.83
2017-08-14T11:51:05.496Z,22.92
2017-08-14T11:52:05.488Z,23.00
2017-08-14T11:53:05.517Z,22.97
2017-08-14T11:54:05.849Z,23.04
2017-08-14T11:55:05.479Z,23.04
2017-08-14T11:56:05.479Z,23.09
2017-08-14T11:57:05.494Z,23.12
2017-08-14T11:58:05.469Z,23.09
2017-08-14T11:59:05.500Z,23.10
2017-08-14T12:00:05.706Z,23.09
2017-08-14T12:01:05.472Z,23.07
2017-08-14T12:02:05.461Z,23.02
2017-08-14T12:03:05.463Z,23.01
2017-08-14T12:04:05.463Z,22.97
2017-08-14T12:05:05.449Z,22.95
2017-08-14T12:06:05.871Z,22.98
2017-08-14T12:07:05.437Z,22.92
2017-08-14T12:08:05.451Z,22.95
2017-08-14T12:09:05.429Z,22.91
2017-08-14T12:10:05.442Z,22.85
2017-08-14T12:11:05.435Z,22.86
2017-08-14T12:12:05.756Z,22.86
2017-08-14T12:13:05.426Z,22.94
2017-08-14T12:14:05.427Z,22.91
2017-08-14T12:15:05.422Z,22.98
2017-08-14T12:16:05.407Z,23.02
2017-08-14T12:17:05.416Z,23.01
2017-08-14T12:18:05.630Z,23.05
2017-08-14T12:19:05.409Z,23.13
2017-08-14T12:20:05.403Z,23.20
2017-08-14T12:21:05.400Z,23.43
2017-08-14T12:22:05.385Z,23.47
2017-08-14T12:23:05.392Z,23.51
2017-08-14T12:24:05.590Z,23.54
2017-08-14T12:25:05.376Z,23.60
2017-08-14T12:26:05.375Z,23.65
2017-08-14T12:27:05.371Z,23.66
2017-08-14T12:28:05.360Z,23.69
2017-08-14T12:29:05.370Z,23.70
2017-08-14T12:30:05.686Z,23.63
2017-08-14T12:31:05.370Z,23.51
2017-08-14T12:32:05.347Z,23.50
2017-08-14T12:33:05.343Z,23.47
2017-08-14T12:34:05.350Z,23.43
2017-08-14T12:35:05.387Z,23.33
2017-08-14T12:36:05.365Z,23.25
2017-08-14T12:37:05.349Z,23.27
2017-08-14T12:38:05.324Z,23.19
2017-08-14T12:39:05.325Z,23.07
2017-08-14T12:40:05.341Z,23.00
2017-08-14T12:41:05.313Z,23.07
2017-08-14T12:42:05.691Z,23.07
2017-08-14T12:43:05.327Z,23.00
2017-08-14T12:44:05.321Z,23.01
2017-08-14T12:45:05.330Z,23.05
2017-08-14T12:46:05.306Z,23.04
2017-08-14T12:47:05.292Z,22.88
2017-08-14T12:48:05.742Z,22.92
2017-08-14T12:49:05.296Z,22.94
2017-08-14T12:50:05.276Z,22.88
2017-08-14T12:51:05.275Z,22.97
2017-08-14T12:52:05.278Z,23.02